sensor_id;sensor_type;location;lat;lon;timestamp;P1;durP1;ratioP1;P2;durP2;ratioP2
77109;SDS011;66062;52.464;16.922;2023-06-26T00:00:28;11.07;;;8.68;;
77109;SDS011;66062;52.464;16.922;2023-06-26T00:02:54;13.02;;;8.88;;
77109;SDS011;66062;52.464;16.922;2023-06-26T00:05:22;9.20;;;7.43;;
77109;SDS011;66062;52.464;16.922;2023-06-26T00:07:56;11.95;;;8.40;;
77109;SDS011;66062;52.464;16.922;2023-06-26T00:10:26;11.95;;;7.93;;
77109;SDS011;66062;52.464;16.922;2023-06-26T00:12:53;12.13;;;7.05;;
77109;SDS011;66062;52.464;16.922;2023-06-26T00:15:18;10.60;;;7.32;;
77109;SDS011;66062;52.464;16.922;2023-06-26T00:17:44;12.02;;;7.85;;
77109;SDS011;66062;52.464;16.922;2023-06-26T00:20:10;9.07;;;7.53;;
77109;SDS011;66062;52.464;16.922;2023-06-26T00:22:37;9.07;;;6.68;;
77109;SDS011;66062;52.464;16.922;2023-06-26T00:25:06;11.20;;;7.38;;
77109;SDS011;66062;52.464;16.922;2023-06-26T00:27:31;8.32;;;5.97;;
77109;SDS011;66062;52.464;16.922;2023-06-26T00:29:57;9.80;;;7.03;;
77109;SDS011;66062;52.464;16.922;2023-06-26T00:32:22;10.60;;;5.97;;
77109;SDS011;66062;52.464;16.922;2023-06-26T00:34:48;10.10;;;6.07;;
77109;SDS011;66062;52.464;16.922;2023-06-26T00:37:13;8.63;;;5.95;;
77109;SDS011;66062;52.464;16.922;2023-06-26T00:39:38;10.20;;;8.07;;
77109;SDS011;66062;52.464;16.922;2023-06-26T00:42:07;11.02;;;8.85;;
77109;SDS011;66062;52.464;16.922;2023-06-26T00:44:32;13.32;;;8.25;;
77109;SDS011;66062;52.464;16.922;2023-06-26T00:46:58;12.95;;;7.55;;
77109;SDS011;66062;52.464;16.922;2023-06-26T00:49:24;10.85;;;7.60;;
77109;SDS011;66062;52.464;16.922;2023-06-26T00:51:50;13.38;;;7.38;;
77109;SDS011;66062;52.464;16.922;2023-06-26T00:54:16;10.45;;;6.75;;
77109;SDS011;66062;52.464;16.922;2023-06-26T00:56:45;11.23;;;7.55;;
77109;SDS011;66062;52.464;16.922;2023-06-26T00:59:12;10.88;;;7.03;;
77109;SDS011;66062;52.464;16.922;2023-06-26T01:01:38;13.18;;;8.05;;
77109;SDS011;66062;52.464;16.922;2023-06-26T01:04:03;9.32;;;6.10;;
77109;SDS011;66062;52.464;16.922;2023-06-26T01:06:33;8.75;;;6.25;;
77109;SDS011;66062;52.464;16.922;2023-06-26T01:09:10;10.35;;;5.90;;
77109;SDS011;66062;52.464;16.922;2023-06-26T01:11:36;10.10;;;7.13;;
77109;SDS011;66062;52.464;16.922;2023-06-26T01:14:01;11.02;;;7.65;;
77109;SDS011;66062;52.464;16.922;2023-06-26T01:16:27;10.00;;;7.28;;
77109;SDS011;66062;52.464;16.922;2023-06-26T01:18:55;10.20;;;7.40;;
77109;SDS011;66062;52.464;16.922;2023-06-26T01:21:22;10.48;;;6.75;;
77109;SDS011;66062;52.464;16.922;2023-06-26T01:26:23;10.88;;;6.28;;
77109;SDS011;66062;52.464;16.922;2023-06-26T01:28:52;10.60;;;6.70;;
77109;SDS011;66062;52.464;16.922;2023-06-26T01:31:20;9.75;;;6.55;;
77109;SDS011;66062;52.464;16.922;2023-06-26T01:33:45;9.65;;;7.10;;
77109;SDS011;66062;52.464;16.922;2023-06-26T01:36:12;10.85;;;6.60;;
77109;SDS011;66062;52.464;16.922;2023-06-26T01:38:37;10.55;;;6.53;;
77109;SDS011;66062;52.464;16.922;2023-06-26T01:41:05;11.02;;;6.68;;
77109;SDS011;66062;52.464;16.922;2023-06-26T01:46:27;10.15;;;6.57;;
77109;SDS011;66062;52.464;16.922;2023-06-26T01:49:03;9.00;;;6.32;;
77109;SDS011;66062;52.464;16.922;2023-06-26T01:51:45;12.65;;;6.45;;
77109;SDS011;66062;52.464;16.922;2023-06-26T01:56:48;9.15;;;6.30;;
77109;SDS011;66062;52.464;16.922;2023-06-26T01:59:14;10.40;;;6.43;;
77109;SDS011;66062;52.464;16.922;2023-06-26T02:01:42;8.93;;;6.35;;
77109;SDS011;66062;52.464;16.922;2023-06-26T02:04:08;8.00;;;6.53;;
77109;SDS011;66062;52.464;16.922;2023-06-26T02:06:33;12.13;;;7.47;;
77109;SDS011;66062;52.464;16.922;2023-06-26T02:08:58;9.27;;;7.18;;
77109;SDS011;66062;52.464;16.922;2023-06-26T02:11:24;10.27;;;6.82;;
77109;SDS011;66062;52.464;16.922;2023-06-26T02:13:49;9.10;;;5.28;;
77109;SDS011;66062;52.464;16.922;2023-06-26T02:16:15;9.45;;;6.72;;
77109;SDS011;66062;52.464;16.922;2023-06-26T02:18:40;9.63;;;6.13;;
77109;SDS011;66062;52.464;16.922;2023-06-26T02:21:06;8.68;;;5.97;;
77109;SDS011;66062;52.464;16.922;2023-06-26T02:23:32;8.77;;;5.95;;
77109;SDS011;66062;52.464;16.922;2023-06-26T02:25:57;9.50;;;5.97;;
77109;SDS011;66062;52.464;16.922;2023-06-26T02:28:22;10.15;;;6.63;;
77109;SDS011;66062;52.464;16.922;2023-06-26T02:30:48;10.55;;;5.93;;
77109;SDS011;66062;52.464;16.922;2023-06-26T02:33:13;9.65;;;6.00;;
77109;SDS011;66062;52.464;16.922;2023-06-26T02:35:39;11.55;;;5.95;;
77109;SDS011;66062;52.464;16.922;2023-06-26T02:38:04;11.55;;;6.10;;
77109;SDS011;66062;52.464;16.922;2023-06-26T02:40:29;8.55;;;5.28;;
77109;SDS011;66062;52.464;16.922;2023-06-26T02:42:55;9.40;;;6.45;;
77109;SDS011;66062;52.464;16.922;2023-06-26T02:45:20;8.10;;;5.75;;
77109;SDS011;66062;52.464;16.922;2023-06-26T02:47:46;9.30;;;6.18;;
77109;SDS011;66062;52.464;16.922;2023-06-26T02:50:11;9.75;;;5.85;;
77109;SDS011;66062;52.464;16.922;2023-06-26T02:52:36;12.43;;;6.90;;
77109;SDS011;66062;52.464;16.922;2023-06-26T02:55:02;8.20;;;6.15;;
77109;SDS011;66062;52.464;16.922;2023-06-26T02:57:29;9.80;;;6.35;;
77109;SDS011;66062;52.464;16.922;2023-06-26T02:59:54;10.75;;;6.03;;
77109;SDS011;66062;52.464;16.922;2023-06-26T03:02:20;13.02;;;7.00;;
77109;SDS011;66062;52.464;16.922;2023-06-26T03:04:45;13.05;;;6.10;;
77109;SDS011;66062;52.464;16.922;2023-06-26T03:07:10;13.27;;;7.00;;
77109;SDS011;66062;52.464;16.922;2023-06-26T03:09:36;8.80;;;5.97;;
77109;SDS011;66062;52.464;16.922;2023-06-26T03:12:01;42.47;;;27.38;;
77109;SDS011;66062;52.464;16.922;2023-06-26T03:14:27;10.00;;;6.88;;
77109;SDS011;66062;52.464;16.922;2023-06-26T03:16:53;16.95;;;10.35;;
77109;SDS011;66062;52.464;16.922;2023-06-26T03:19:22;9.35;;;6.32;;
77109;SDS011;66062;52.464;16.922;2023-06-26T03:21:48;10.52;;;6.72;;
77109;SDS011;66062;52.464;16.922;2023-06-26T03:24:13;11.07;;;7.22;;
77109;SDS011;66062;52.464;16.922;2023-06-26T03:26:39;15.48;;;7.50;;
77109;SDS011;66062;52.464;16.922;2023-06-26T03:29:04;10.70;;;6.60;;
77109;SDS011;66062;52.464;16.922;2023-06-26T03:31:29;8.38;;;5.78;;
77109;SDS011;66062;52.464;16.922;2023-06-26T03:33:54;8.95;;;6.20;;
77109;SDS011;66062;52.464;16.922;2023-06-26T03:36:20;8.85;;;6.53;;
77109;SDS011;66062;52.464;16.922;2023-06-26T03:38:45;8.02;;;6.20;;
77109;SDS011;66062;52.464;16.922;2023-06-26T03:41:11;10.13;;;7.25;;
77109;SDS011;66062;52.464;16.922;2023-06-26T03:43:39;15.05;;;8.63;;
77109;SDS011;66062;52.464;16.922;2023-06-26T03:46:05;14.77;;;7.82;;
77109;SDS011;66062;52.464;16.922;2023-06-26T03:48:31;12.15;;;8.77;;
77109;SDS011;66062;52.464;16.922;2023-06-26T03:50:57;11.13;;;6.47;;
77109;SDS011;66062;52.464;16.922;2023-06-26T03:53:22;11.13;;;7.15;;
77109;SDS011;66062;52.464;16.922;2023-06-26T03:55:48;11.65;;;6.13;;
77109;SDS011;66062;52.464;16.922;2023-06-26T03:58:14;11.82;;;7.97;;
77109;SDS011;66062;52.464;16.922;2023-06-26T04:00:39;16.15;;;7.32;;
77109;SDS011;66062;52.464;16.922;2023-06-26T04:03:05;11.57;;;7.28;;
77109;SDS011;66062;52.464;16.922;2023-06-26T04:05:31;11.35;;;6.45;;
77109;SDS011;66062;52.464;16.922;2023-06-26T04:07:56;9.13;;;6.50;;
77109;SDS011;66062;52.464;16.922;2023-06-26T04:10:22;8.75;;;6.30;;
77109;SDS011;66062;52.464;16.922;2023-06-26T04:12:47;7.78;;;5.70;;
77109;SDS011;66062;52.464;16.922;2023-06-26T04:15:13;10.43;;;6.28;;
77109;SDS011;66062;52.464;16.922;2023-06-26T04:17:39;9.73;;;5.55;;
77109;SDS011;66062;52.464;16.922;2023-06-26T04:20:04;9.48;;;6.03;;
77109;SDS011;66062;52.464;16.922;2023-06-26T04:22:33;10.40;;;5.75;;
77109;SDS011;66062;52.464;16.922;2023-06-26T04:25:01;11.60;;;5.63;;
77109;SDS011;66062;52.464;16.922;2023-06-26T04:27:28;9.90;;;5.57;;
77109;SDS011;66062;52.464;16.922;2023-06-26T04:29:53;7.75;;;5.40;;
77109;SDS011;66062;52.464;16.922;2023-06-26T04:32:19;8.73;;;5.70;;
77109;SDS011;66062;52.464;16.922;2023-06-26T04:34:44;10.32;;;5.40;;
77109;SDS011;66062;52.464;16.922;2023-06-26T04:37:10;11.32;;;5.65;;
77109;SDS011;66062;52.464;16.922;2023-06-26T04:39:36;9.68;;;5.45;;
77109;SDS011;66062;52.464;16.922;2023-06-26T04:42:02;10.70;;;5.32;;
77109;SDS011;66062;52.464;16.922;2023-06-26T04:44:28;10.77;;;5.40;;
77109;SDS011;66062;52.464;16.922;2023-06-26T04:46:53;10.30;;;5.95;;
77109;SDS011;66062;52.464;16.922;2023-06-26T04:49:19;8.85;;;5.65;;
77109;SDS011;66062;52.464;16.922;2023-06-26T04:51:44;7.90;;;5.22;;
77109;SDS011;66062;52.464;16.922;2023-06-26T04:54:10;9.63;;;5.80;;
77109;SDS011;66062;52.464;16.922;2023-06-26T04:56:36;8.95;;;5.95;;
77109;SDS011;66062;52.464;16.922;2023-06-26T04:59:04;9.95;;;5.68;;
77109;SDS011;66062;52.464;16.922;2023-06-26T05:01:30;8.48;;;4.85;;
77109;SDS011;66062;52.464;16.922;2023-06-26T05:03:57;7.53;;;5.82;;
77109;SDS011;66062;52.464;16.922;2023-06-26T05:06:26;10.10;;;6.18;;
77109;SDS011;66062;52.464;16.922;2023-06-26T05:08:51;8.02;;;5.57;;
77109;SDS011;66062;52.464;16.922;2023-06-26T05:11:17;15.60;;;6.13;;
77109;SDS011;66062;52.464;16.922;2023-06-26T05:13:42;18.13;;;5.40;;
77109;SDS011;66062;52.464;16.922;2023-06-26T05:16:08;10.02;;;5.38;;
77109;SDS011;66062;52.464;16.922;2023-06-26T05:18:34;10.73;;;5.55;;
77109;SDS011;66062;52.464;16.922;2023-06-26T05:21:00;8.73;;;5.00;;
77109;SDS011;66062;52.464;16.922;2023-06-26T05:23:26;11.88;;;6.05;;
77109;SDS011;66062;52.464;16.922;2023-06-26T05:25:55;13.43;;;9.57;;
77109;SDS011;66062;52.464;16.922;2023-06-26T05:28:21;9.30;;;5.68;;
77109;SDS011;66062;52.464;16.922;2023-06-26T05:30:48;7.35;;;4.90;;
77109;SDS011;66062;52.464;16.922;2023-06-26T05:33:14;10.05;;;4.85;;
77109;SDS011;66062;52.464;16.922;2023-06-26T05:35:41;7.90;;;5.20;;
77109;SDS011;66062;52.464;16.922;2023-06-26T05:38:09;7.93;;;4.90;;
77109;SDS011;66062;52.464;16.922;2023-06-26T05:40:35;8.40;;;5.35;;
77109;SDS011;66062;52.464;16.922;2023-06-26T05:43:01;10.93;;;6.13;;
77109;SDS011;66062;52.464;16.922;2023-06-26T05:45:27;9.30;;;5.57;;
77109;SDS011;66062;52.464;16.922;2023-06-26T05:47:52;8.75;;;5.20;;
77109;SDS011;66062;52.464;16.922;2023-06-26T05:50:18;6.95;;;5.03;;
77109;SDS011;66062;52.464;16.922;2023-06-26T05:55:10;7.97;;;5.22;;
77109;SDS011;66062;52.464;16.922;2023-06-26T05:57:36;9.07;;;5.40;;
77109;SDS011;66062;52.464;16.922;2023-06-26T06:00:03;8.60;;;5.03;;
77109;SDS011;66062;52.464;16.922;2023-06-26T06:02:30;7.63;;;5.07;;
77109;SDS011;66062;52.464;16.922;2023-06-26T06:04:56;9.02;;;5.07;;
77109;SDS011;66062;52.464;16.922;2023-06-26T06:07:21;11.10;;;4.35;;
77109;SDS011;66062;52.464;16.922;2023-06-26T06:09:47;7.07;;;4.70;;
77109;SDS011;66062;52.464;16.922;2023-06-26T06:12:12;8.40;;;5.20;;
77109;SDS011;66062;52.464;16.922;2023-06-26T06:14:38;10.52;;;4.97;;
77109;SDS011;66062;52.464;16.922;2023-06-26T06:17:03;11.63;;;5.28;;
77109;SDS011;66062;52.464;16.922;2023-06-26T06:19:28;8.27;;;4.30;;
77109;SDS011;66062;52.464;16.922;2023-06-26T06:21:54;8.85;;;4.32;;
77109;SDS011;66062;52.464;16.922;2023-06-26T06:24:19;11.07;;;4.70;;
77109;SDS011;66062;52.464;16.922;2023-06-26T06:26:53;8.75;;;4.50;;
77109;SDS011;66062;52.464;16.922;2023-06-26T06:29:18;10.05;;;4.35;;
77109;SDS011;66062;52.464;16.922;2023-06-26T06:31:44;7.25;;;4.22;;
77109;SDS011;66062;52.464;16.922;2023-06-26T06:34:10;6.53;;;4.30;;
77109;SDS011;66062;52.464;16.922;2023-06-26T06:36:35;9.38;;;4.95;;
77109;SDS011;66062;52.464;16.922;2023-06-26T06:39:01;8.93;;;4.43;;
77109;SDS011;66062;52.464;16.922;2023-06-26T06:41:26;9.18;;;4.20;;
77109;SDS011;66062;52.464;16.922;2023-06-26T06:43:52;9.25;;;5.00;;
77109;SDS011;66062;52.464;16.922;2023-06-26T06:46:17;10.23;;;3.88;;
77109;SDS011;66062;52.464;16.922;2023-06-26T06:48:45;5.82;;;3.75;;
77109;SDS011;66062;52.464;16.922;2023-06-26T06:51:12;8.60;;;3.60;;
77109;SDS011;66062;52.464;16.922;2023-06-26T06:53:37;7.55;;;3.88;;
77109;SDS011;66062;52.464;16.922;2023-06-26T06:56:03;6.68;;;3.67;;
77109;SDS011;66062;52.464;16.922;2023-06-26T06:58:28;9.00;;;3.72;;
77109;SDS011;66062;52.464;16.922;2023-06-26T07:00:55;9.68;;;3.65;;
77109;SDS011;66062;52.464;16.922;2023-06-26T07:03:21;7.55;;;3.55;;
77109;SDS011;66062;52.464;16.922;2023-06-26T07:05:47;4.95;;;3.30;;
77109;SDS011;66062;52.464;16.922;2023-06-26T07:08:12;5.45;;;3.80;;
77109;SDS011;66062;52.464;16.922;2023-06-26T07:10:38;5.53;;;3.00;;
77109;SDS011;66062;52.464;16.922;2023-06-26T07:13:03;5.10;;;3.20;;
77109;SDS011;66062;52.464;16.922;2023-06-26T07:15:29;10.55;;;9.35;;
77109;SDS011;66062;52.464;16.922;2023-06-26T07:17:56;6.13;;;2.65;;
77109;SDS011;66062;52.464;16.922;2023-06-26T07:20:21;9.65;;;4.70;;
77109;SDS011;66062;52.464;16.922;2023-06-26T07:22:48;7.38;;;3.50;;
77109;SDS011;66062;52.464;16.922;2023-06-26T07:25:13;3.95;;;2.65;;
77109;SDS011;66062;52.464;16.922;2023-06-26T07:27:40;6.80;;;3.08;;
77109;SDS011;66062;52.464;16.922;2023-06-26T07:30:06;7.57;;;3.03;;
77109;SDS011;66062;52.464;16.922;2023-06-26T07:32:39;5.45;;;2.72;;
77109;SDS011;66062;52.464;16.922;2023-06-26T07:35:07;4.95;;;2.80;;
77109;SDS011;66062;52.464;16.922;2023-06-26T07:39:59;7.03;;;3.40;;
77109;SDS011;66062;52.464;16.922;2023-06-26T07:42:24;7.53;;;3.03;;
77109;SDS011;66062;52.464;16.922;2023-06-26T07:44:49;8.05;;;3.15;;
77109;SDS011;66062;52.464;16.922;2023-06-26T07:47:15;5.90;;;2.88;;
77109;SDS011;66062;52.464;16.922;2023-06-26T07:49:40;4.80;;;3.03;;
77109;SDS011;66062;52.464;16.922;2023-06-26T07:54:32;6.00;;;3.13;;
77109;SDS011;66062;52.464;16.922;2023-06-26T07:59:24;7.15;;;3.25;;
77109;SDS011;66062;52.464;16.922;2023-06-26T08:01:51;7.35;;;3.05;;
77109;SDS011;66062;52.464;16.922;2023-06-26T08:04:17;4.47;;;3.05;;
77109;SDS011;66062;52.464;16.922;2023-06-26T08:06:45;5.60;;;3.00;;
77109;SDS011;66062;52.464;16.922;2023-06-26T08:09:12;5.43;;;2.95;;
77109;SDS011;66062;52.464;16.922;2023-06-26T08:14:03;6.30;;;3.03;;
77109;SDS011;66062;52.464;16.922;2023-06-26T08:16:28;5.78;;;2.78;;
77109;SDS011;66062;52.464;16.922;2023-06-26T08:21:19;8.03;;;3.23;;
77109;SDS011;66062;52.464;16.922;2023-06-26T08:26:10;13.65;;;3.92;;
77109;SDS011;66062;52.464;16.922;2023-06-26T08:31:01;6.70;;;2.97;;
77109;SDS011;66062;52.464;16.922;2023-06-26T08:35:52;4.03;;;2.77;;
77109;SDS011;66062;52.464;16.922;2023-06-26T08:40:46;3.95;;;2.10;;
77109;SDS011;66062;52.464;16.922;2023-06-26T08:45:37;3.13;;;2.63;;
77109;SDS011;66062;52.464;16.922;2023-06-26T08:48:03;4.45;;;2.75;;
77109;SDS011;66062;52.464;16.922;2023-06-26T08:50:33;3.63;;;2.92;;
77109;SDS011;66062;52.464;16.922;2023-06-26T08:53:03;4.85;;;2.70;;
77109;SDS011;66062;52.464;16.922;2023-06-26T08:55:36;5.20;;;2.85;;
77109;SDS011;66062;52.464;16.922;2023-06-26T08:58:04;3.63;;;2.75;;
77109;SDS011;66062;52.464;16.922;2023-06-26T09:02:56;4.40;;;2.88;;
77109;SDS011;66062;52.464;16.922;2023-06-26T09:07:47;3.42;;;2.50;;
77109;SDS011;66062;52.464;16.922;2023-06-26T09:12:38;4.60;;;2.42;;
77109;SDS011;66062;52.464;16.922;2023-06-26T09:17:32;5.22;;;3.25;;
77109;SDS011;66062;52.464;16.922;2023-06-26T09:20:03;4.80;;;3.05;;
77109;SDS011;66062;52.464;16.922;2023-06-26T09:22:29;4.45;;;3.15;;
77109;SDS011;66062;52.464;16.922;2023-06-26T09:24:58;4.63;;;2.83;;
77109;SDS011;66062;52.464;16.922;2023-06-26T09:29:50;4.32;;;2.80;;
77109;SDS011;66062;52.464;16.922;2023-06-26T09:32:16;5.93;;;3.30;;
77109;SDS011;66062;52.464;16.922;2023-06-26T09:34:42;5.55;;;2.63;;
77109;SDS011;66062;52.464;16.922;2023-06-26T09:37:12;5.80;;;3.20;;
77109;SDS011;66062;52.464;16.922;2023-06-26T09:39:39;4.88;;;3.00;;
77109;SDS011;66062;52.464;16.922;2023-06-26T09:44:31;3.42;;;2.33;;
77109;SDS011;66062;52.464;16.922;2023-06-26T09:47:00;4.10;;;2.65;;
77109;SDS011;66062;52.464;16.922;2023-06-26T09:49:29;3.45;;;2.50;;
77109;SDS011;66062;52.464;16.922;2023-06-26T09:54:21;3.03;;;2.50;;
77109;SDS011;66062;52.464;16.922;2023-06-26T09:56:47;5.25;;;2.50;;
77109;SDS011;66062;52.464;16.922;2023-06-26T10:01:43;3.40;;;2.47;;
77109;SDS011;66062;52.464;16.922;2023-06-26T10:04:11;5.32;;;2.60;;
77109;SDS011;66062;52.464;16.922;2023-06-26T10:09:06;4.78;;;2.35;;
77109;SDS011;66062;52.464;16.922;2023-06-26T10:11:37;3.17;;;2.33;;
77109;SDS011;66062;52.464;16.922;2023-06-26T10:14:13;2.95;;;2.33;;
77109;SDS011;66062;52.464;16.922;2023-06-26T10:16:39;3.67;;;2.70;;
77109;SDS011;66062;52.464;16.922;2023-06-26T10:19:09;4.40;;;3.10;;
77109;SDS011;66062;52.464;16.922;2023-06-26T10:21:37;3.90;;;2.53;;
77109;SDS011;66062;52.464;16.922;2023-06-26T10:24:04;3.70;;;2.50;;
77109;SDS011;66062;52.464;16.922;2023-06-26T10:26:30;2.80;;;2.22;;
77109;SDS011;66062;52.464;16.922;2023-06-26T10:29:00;5.93;;;3.10;;
77109;SDS011;66062;52.464;16.922;2023-06-26T10:31:27;3.40;;;2.45;;
77109;SDS011;66062;52.464;16.922;2023-06-26T10:33:54;4.93;;;2.25;;
77109;SDS011;66062;52.464;16.922;2023-06-26T10:36:21;3.45;;;2.47;;
77109;SDS011;66062;52.464;16.922;2023-06-26T10:38:57;5.60;;;3.42;;
77109;SDS011;66062;52.464;16.922;2023-06-26T10:41:26;3.10;;;2.50;;
77109;SDS011;66062;52.464;16.922;2023-06-26T10:46:23;7.25;;;2.55;;
77109;SDS011;66062;52.464;16.922;2023-06-26T10:48:55;3.85;;;2.92;;
77109;SDS011;66062;52.464;16.922;2023-06-26T10:51:27;4.88;;;3.03;;
77109;SDS011;66062;52.464;16.922;2023-06-26T10:53:54;4.88;;;3.17;;
77109;SDS011;66062;52.464;16.922;2023-06-26T10:56:21;3.92;;;3.00;;
77109;SDS011;66062;52.464;16.922;2023-06-26T10:58:47;9.00;;;3.10;;
77109;SDS011;66062;52.464;16.922;2023-06-26T11:01:20;5.80;;;4.07;;
77109;SDS011;66062;52.464;16.922;2023-06-26T11:06:24;3.95;;;2.80;;
77109;SDS011;66062;52.464;16.922;2023-06-26T11:08:50;8.68;;;3.03;;
77109;SDS011;66062;52.464;16.922;2023-06-26T11:11:20;5.88;;;2.97;;
77109;SDS011;66062;52.464;16.922;2023-06-26T11:13:47;4.50;;;3.22;;
77109;SDS011;66062;52.464;16.922;2023-06-26T11:16:13;4.25;;;3.22;;
77109;SDS011;66062;52.464;16.922;2023-06-26T11:18:42;4.50;;;2.88;;
77109;SDS011;66062;52.464;16.922;2023-06-26T11:21:10;4.07;;;2.75;;
77109;SDS011;66062;52.464;16.922;2023-06-26T11:23:39;4.47;;;2.75;;
77109;SDS011;66062;52.464;16.922;2023-06-26T11:26:15;3.90;;;2.60;;
77109;SDS011;66062;52.464;16.922;2023-06-26T11:28:47;4.32;;;2.78;;
77109;SDS011;66062;52.464;16.922;2023-06-26T11:34:05;5.72;;;3.13;;
77109;SDS011;66062;52.464;16.922;2023-06-26T11:36:33;3.70;;;2.88;;
77109;SDS011;66062;52.464;16.922;2023-06-26T11:39:03;3.30;;;2.60;;
77109;SDS011;66062;52.464;16.922;2023-06-26T11:41:34;5.32;;;2.67;;
77109;SDS011;66062;52.464;16.922;2023-06-26T11:44:01;4.10;;;2.75;;
77109;SDS011;66062;52.464;16.922;2023-06-26T11:46:28;4.32;;;2.80;;
77109;SDS011;66062;52.464;16.922;2023-06-26T11:51:19;3.88;;;2.30;;
77109;SDS011;66062;52.464;16.922;2023-06-26T11:53:45;3.97;;;2.70;;
77109;SDS011;66062;52.464;16.922;2023-06-26T11:56:13;4.03;;;3.08;;
77109;SDS011;66062;52.464;16.922;2023-06-26T12:01:36;6.15;;;2.55;;
77109;SDS011;66062;52.464;16.922;2023-06-26T12:04:04;3.08;;;2.30;;
77109;SDS011;66062;52.464;16.922;2023-06-26T12:06:32;4.47;;;2.45;;
77109;SDS011;66062;52.464;16.922;2023-06-26T12:08:59;5.45;;;2.40;;
77109;SDS011;66062;52.464;16.922;2023-06-26T12:11:26;5.50;;;2.53;;
77109;SDS011;66062;52.464;16.922;2023-06-26T12:13:55;3.17;;;2.58;;
77109;SDS011;66062;52.464;16.922;2023-06-26T12:16:25;3.08;;;2.58;;
77109;SDS011;66062;52.464;16.922;2023-06-26T12:18:57;3.47;;;2.50;;
77109;SDS011;66062;52.464;16.922;2023-06-26T12:24:06;3.63;;;2.38;;
77109;SDS011;66062;52.464;16.922;2023-06-26T12:26:33;5.10;;;2.55;;
77109;SDS011;66062;52.464;16.922;2023-06-26T12:29:04;4.43;;;2.90;;
77109;SDS011;66062;52.464;16.922;2023-06-26T12:31:30;3.83;;;2.53;;
77109;SDS011;66062;52.464;16.922;2023-06-26T12:33:57;5.80;;;2.85;;
77109;SDS011;66062;52.464;16.922;2023-06-26T12:36:23;3.28;;;2.70;;
77109;SDS011;66062;52.464;16.922;2023-06-26T12:38:49;4.22;;;3.15;;
77109;SDS011;66062;52.464;16.922;2023-06-26T12:41:15;3.58;;;2.65;;
77109;SDS011;66062;52.464;16.922;2023-06-26T12:43:41;6.28;;;3.15;;
77109;SDS011;66062;52.464;16.922;2023-06-26T12:46:07;7.05;;;2.80;;
77109;SDS011;66062;52.464;16.922;2023-06-26T12:48:36;5.88;;;3.03;;
77109;SDS011;66062;52.464;16.922;2023-06-26T12:51:12;3.65;;;3.03;;
77109;SDS011;66062;52.464;16.922;2023-06-26T12:53:39;3.40;;;2.70;;
77109;SDS011;66062;52.464;16.922;2023-06-26T12:56:08;6.03;;;2.85;;
77109;SDS011;66062;52.464;16.922;2023-06-26T12:58:34;4.38;;;2.33;;
77109;SDS011;66062;52.464;16.922;2023-06-26T13:01:03;5.65;;;2.80;;
77109;SDS011;66062;52.464;16.922;2023-06-26T13:03:32;4.05;;;2.83;;
77109;SDS011;66062;52.464;16.922;2023-06-26T13:05:58;3.35;;;2.58;;
77109;SDS011;66062;52.464;16.922;2023-06-26T13:08:23;6.05;;;3.10;;
77109;SDS011;66062;52.464;16.922;2023-06-26T13:10:49;3.75;;;2.80;;
77109;SDS011;66062;52.464;16.922;2023-06-26T13:13:14;3.53;;;2.65;;
77109;SDS011;66062;52.464;16.922;2023-06-26T13:15:39;4.38;;;2.83;;
77109;SDS011;66062;52.464;16.922;2023-06-26T13:18:05;5.10;;;3.13;;
77109;SDS011;66062;52.464;16.922;2023-06-26T13:20:31;4.03;;;3.03;;
77109;SDS011;66062;52.464;16.922;2023-06-26T13:22:56;4.22;;;3.15;;
77109;SDS011;66062;52.464;16.922;2023-06-26T13:25:22;6.40;;;3.60;;
77109;SDS011;66062;52.464;16.922;2023-06-26T13:27:48;5.15;;;3.50;;
77109;SDS011;66062;52.464;16.922;2023-06-26T13:30:14;4.95;;;3.60;;
77109;SDS011;66062;52.464;16.922;2023-06-26T13:32:41;4.85;;;3.58;;
77109;SDS011;66062;52.464;16.922;2023-06-26T13:35:07;9.45;;;3.83;;
77109;SDS011;66062;52.464;16.922;2023-06-26T13:40:04;6.45;;;3.58;;
77109;SDS011;66062;52.464;16.922;2023-06-26T13:42:31;7.50;;;4.25;;
77109;SDS011;66062;52.464;16.922;2023-06-26T13:44:57;6.70;;;4.00;;
77109;SDS011;66062;52.464;16.922;2023-06-26T13:47:22;5.93;;;3.63;;
77109;SDS011;66062;52.464;16.922;2023-06-26T13:49:48;7.35;;;3.92;;
77109;SDS011;66062;52.464;16.922;2023-06-26T13:52:14;7.75;;;4.50;;
77109;SDS011;66062;52.464;16.922;2023-06-26T13:54:39;6.00;;;3.72;;
77109;SDS011;66062;52.464;16.922;2023-06-26T13:57:06;6.88;;;3.55;;
77109;SDS011;66062;52.464;16.922;2023-06-26T13:59:32;7.00;;;3.53;;
77109;SDS011;66062;52.464;16.922;2023-06-26T14:04:24;5.68;;;3.60;;
77109;SDS011;66062;52.464;16.922;2023-06-26T14:06:50;5.28;;;3.92;;
77109;SDS011;66062;52.464;16.922;2023-06-26T14:09:16;5.30;;;3.88;;
77109;SDS011;66062;52.464;16.922;2023-06-26T14:11:43;4.60;;;3.45;;
77109;SDS011;66062;52.464;16.922;2023-06-26T14:14:09;5.00;;;3.60;;
77109;SDS011;66062;52.464;16.922;2023-06-26T14:16:34;4.50;;;3.83;;
77109;SDS011;66062;52.464;16.922;2023-06-26T14:19:00;4.75;;;3.85;;
77109;SDS011;66062;52.464;16.922;2023-06-26T14:21:25;5.88;;;3.95;;
77109;SDS011;66062;52.464;16.922;2023-06-26T14:23:52;4.57;;;3.63;;
77109;SDS011;66062;52.464;16.922;2023-06-26T14:26:18;5.72;;;3.45;;
77109;SDS011;66062;52.464;16.922;2023-06-26T14:28:44;6.57;;;4.03;;
77109;SDS011;66062;52.464;16.922;2023-06-26T14:31:10;5.97;;;3.70;;
77109;SDS011;66062;52.464;16.922;2023-06-26T14:33:36;5.60;;;4.60;;
77109;SDS011;66062;52.464;16.922;2023-06-26T14:36:01;4.72;;;3.55;;
77109;SDS011;66062;52.464;16.922;2023-06-26T14:38:27;6.03;;;3.60;;
77109;SDS011;66062;52.464;16.922;2023-06-26T14:40:53;4.68;;;3.35;;
77109;SDS011;66062;52.464;16.922;2023-06-26T14:43:18;5.32;;;3.88;;
77109;SDS011;66062;52.464;16.922;2023-06-26T14:45:43;6.35;;;3.80;;
77109;SDS011;66062;52.464;16.922;2023-06-26T14:48:10;5.25;;;4.35;;
77109;SDS011;66062;52.464;16.922;2023-06-26T14:50:36;5.70;;;3.92;;
77109;SDS011;66062;52.464;16.922;2023-06-26T14:53:05;5.30;;;3.72;;
77109;SDS011;66062;52.464;16.922;2023-06-26T14:55:30;6.18;;;3.78;;
77109;SDS011;66062;52.464;16.922;2023-06-26T14:57:56;4.55;;;3.95;;
77109;SDS011;66062;52.464;16.922;2023-06-26T15:00:21;6.05;;;4.25;;
77109;SDS011;66062;52.464;16.922;2023-06-26T15:02:47;5.93;;;3.72;;
77109;SDS011;66062;52.464;16.922;2023-06-26T15:05:13;4.43;;;3.85;;
77109;SDS011;66062;52.464;16.922;2023-06-26T15:07:38;4.85;;;3.30;;
77109;SDS011;66062;52.464;16.922;2023-06-26T15:10:04;4.50;;;3.75;;
77109;SDS011;66062;52.464;16.922;2023-06-26T15:12:31;6.65;;;4.05;;
77109;SDS011;66062;52.464;16.922;2023-06-26T15:14:57;7.53;;;3.78;;
77109;SDS011;66062;52.464;16.922;2023-06-26T15:17:22;6.78;;;4.60;;
77109;SDS011;66062;52.464;16.922;2023-06-26T15:19:47;6.50;;;3.90;;
77109;SDS011;66062;52.464;16.922;2023-06-26T15:22:13;6.97;;;4.30;;
77109;SDS011;66062;52.464;16.922;2023-06-26T15:24:40;5.75;;;4.35;;
77109;SDS011;66062;52.464;16.922;2023-06-26T15:27:05;6.05;;;4.35;;
77109;SDS011;66062;52.464;16.922;2023-06-26T15:29:30;7.03;;;4.38;;
77109;SDS011;66062;52.464;16.922;2023-06-26T15:31:56;6.53;;;4.72;;
77109;SDS011;66062;52.464;16.922;2023-06-26T15:34:21;5.30;;;4.20;;
77109;SDS011;66062;52.464;16.922;2023-06-26T15:36:47;5.25;;;4.35;;
77109;SDS011;66062;52.464;16.922;2023-06-26T15:39:13;5.45;;;4.22;;
77109;SDS011;66062;52.464;16.922;2023-06-26T15:41:38;6.28;;;4.40;;
77109;SDS011;66062;52.464;16.922;2023-06-26T15:44:04;6.57;;;4.38;;